PWSweather.com
Personal Weather Stations
Station Observations
ZYBORSKI
Fromes HillGB hr8 1

Fromes HillGB hr8 1

Lat: 52.1172558, Lon: -2.4749163

Elevation: 0

Station Type: FineOffset

High Low Average
Temperature 0.0°F-17.8°F 0.0°F-17.8°F 0.0°F-17.8°F
Dew Point 0.0°F-17.8°F 0.0°F-17.8°F 0.0°F-17.8°F
Winds Calm Calm Calm Calm Calm Calm
Wind Gusts -- -- --
Humidity 0% 0% 0%
Pressure 0.00 in0.00 in 0.00 in0.00 in -
Precipitation 0.00 in0.00 in - -
Hour Temp Dew Point Humidity Winds Wind Gusts Pressure Precip Precip Rate Daily Precip Total
11:54 AM 55.6°F13.1°C 55.3°F12.9°C 99% Calm Calm -- 30.29 in1025.7 mb 0.00 in0.0 mm 0.00 in/hr0.0 mm/hr 0.00 in0.0 mm
11:55 AM 50.4°F10.2°C 50.1°F10.1°C 99% Calm Calm -- 30.35 in1027.8 mb 0.00 in0.0 mm 0.00 in/hr0.0 mm/hr 0.00 in0.0 mm
11:56 AM 53.1°F11.7°C 52.8°F11.6°C 99% Calm Calm -- 30.18 in1022.0 mb 0.00 in0.0 mm 0.00 in/hr0.0 mm/hr 0.00 in0.0 mm
11:57 AM 57.7°F14.3°C 57.5°F14.2°C 99% Calm Calm -- 29.81 in1009.5 mb 0.00 in0.0 mm 0.00 in/hr0.0 mm/hr 0.00 in0.0 mm
11:58 AM 60.8°F16.0°C 60.5°F15.8°C 99% Calm Calm -- 30.05 in1017.6 mb 0.00 in0.0 mm 0.00 in/hr0.0 mm/hr 0.07 in1.8 mm
11:59 AM 62.2°F16.8°C 62.0°F16.7°C 99% Calm Calm 6.0 mph9.7 kmh 30.09 in1019.0 mb 0.00 in0.0 mm 0.00 in/hr0.0 mm/hr 0.00 in0.0 mm
12:00 PM 64.8°F18.2°C 60.2°F15.7°C 85% 2.2 mph WNW3.5 kmh WNW 13.0 mph20.9 kmh 30.34 in1027.4 mb 0.00 in0.0 mm 0.00 in/hr0.0 mm/hr 0.00 in0.0 mm
12:01 PM 54.3°F12.4°C 54.0°F12.2°C 99% Calm Calm -- 30.18 in1022.0 mb 0.00 in0.0 mm 0.00 in/hr0.0 mm/hr 0.01 in0.3 mm
12:02 PM 64.0°F17.8°C 60.4°F15.8°C 88% Calm Calm -- 30.34 in1027.4 mb 0.00 in0.0 mm 0.00 in/hr0.0 mm/hr 0.00 in0.0 mm
12:15 PM 64.4°F18.0°C 59.5°F15.3°C 84% Calm Calm 13.0 mph20.9 kmh 30.35 in1027.8 mb 0.00 in0.0 mm 0.00 in/hr0.0 mm/hr 0.00 in0.0 mm
12:30 PM 65.8°F18.8°C 61.9°F16.6°C 87% Calm Calm 8.3 mph13.4 kmh 30.35 in1027.8 mb 0.00 in0.0 mm 0.00 in/hr0.0 mm/hr 0.00 in0.0 mm
12:45 PM 66.9°F19.4°C 61.6°F16.4°C 83% Calm Calm 9.2 mph14.8 kmh 30.35 in1027.8 mb 0.00 in0.0 mm 0.00 in/hr0.0 mm/hr 0.00 in0.0 mm
01:00 PM 65.8°F18.8°C 59.9°F15.5°C 81% Calm Calm 6.9 mph11.1 kmh 30.35 in1027.8 mb 0.00 in0.0 mm 0.00 in/hr0.0 mm/hr 0.00 in0.0 mm
01:15 PM 66.2°F19.0°C 60.6°F15.9°C 82% 0.7 mph NW1.1 kmh NW 4.5 mph7.2 kmh 30.35 in1027.8 mb 0.00 in0.0 mm 0.00 in/hr0.0 mm/hr 0.00 in0.0 mm
01:30 PM 66.9°F19.4°C 60.9°F16.1°C 81% 2.2 mph NW3.5 kmh NW 8.3 mph13.4 kmh 30.35 in1027.8 mb 0.00 in0.0 mm 0.00 in/hr0.0 mm/hr 0.00 in0.0 mm
01:45 PM 68.2°F20.1°C 60.7°F15.9°C 77% Calm Calm 10.7 mph17.2 kmh 30.35 in1027.8 mb 0.00 in0.0 mm 0.00 in/hr0.0 mm/hr 0.00 in0.0 mm
02:00 PM 67.3°F19.6°C 59.8°F15.4°C 77% Calm Calm 14.5 mph23.3 kmh 30.35 in1027.8 mb 0.00 in0.0 mm 0.00 in/hr0.0 mm/hr 0.00 in0.0 mm
02:15 PM 68.2°F20.1°C 60.7°F15.9°C 77% Calm Calm 9.8 mph15.8 kmh 30.35 in1027.8 mb 0.00 in0.0 mm 0.00 in/hr0.0 mm/hr 0.00 in0.0 mm
02:30 PM 68.0°F20.0°C 57.9°F14.4°C 70% Calm Calm 12.1 mph19.5 kmh 30.35 in1027.8 mb 0.00 in0.0 mm 0.00 in/hr0.0 mm/hr 0.00 in0.0 mm
02:45 PM 68.7°F20.4°C 58.6°F14.8°C 70% Calm Calm 3.8 mph6.1 kmh 30.35 in1027.8 mb 0.00 in0.0 mm 0.00 in/hr0.0 mm/hr 0.00 in0.0 mm
03:00 PM 68.0°F20.0°C 59.4°F15.2°C 74% 3.1 mph NW5.0 kmh NW 11.4 mph18.3 kmh 30.35 in1027.8 mb 0.00 in0.0 mm 0.00 in/hr0.0 mm/hr 0.00 in0.0 mm
03:15 PM 68.7°F20.4°C 58.2°F14.6°C 69% Calm Calm 9.2 mph14.8 kmh 30.35 in1027.8 mb 0.00 in0.0 mm 0.00 in/hr0.0 mm/hr 0.00 in0.0 mm
03:30 PM 68.4°F20.2°C 59.4°F15.2°C 73% Calm Calm 9.8 mph15.8 kmh 30.35 in1027.8 mb 0.00 in0.0 mm 0.00 in/hr0.0 mm/hr 0.00 in0.0 mm
03:45 PM 68.7°F20.4°C 59.0°F15.0°C 71% Calm Calm 9.8 mph15.8 kmh 30.34 in1027.4 mb 0.00 in0.0 mm 0.00 in/hr0.0 mm/hr 0.00 in0.0 mm
04:00 PM 69.1°F20.6°C 59.7°F15.4°C 72% Calm Calm 4.5 mph7.2 kmh 30.34 in1027.4 mb 0.00 in0.0 mm 0.00 in/hr0.0 mm/hr 0.00 in0.0 mm
04:15 PM 70.5°F21.4°C 60.3°F15.7°C 70% Calm Calm -- 30.33 in1027.1 mb 0.00 in0.0 mm 0.00 in/hr0.0 mm/hr 0.00 in0.0 mm
04:30 PM 68.4°F20.2°C 61.3°F16.3°C 78% Calm Calm 0.7 mph1.1 kmh 30.34 in1027.4 mb 0.00 in0.0 mm 0.00 in/hr0.0 mm/hr 0.00 in0.0 mm
04:45 PM 68.0°F20.0°C 60.9°F16.1°C 78% Calm Calm -- 30.33 in1027.1 mb 0.00 in0.0 mm 0.00 in/hr0.0 mm/hr 0.00 in0.0 mm
05:00 PM 67.6°F19.8°C 61.3°F16.3°C 80% Calm Calm 0.7 mph1.1 kmh 30.33 in1027.1 mb 0.00 in0.0 mm 0.00 in/hr0.0 mm/hr 0.00 in0.0 mm
05:15 PM 67.5°F19.7°C 60.7°F15.9°C 79% Calm Calm 4.5 mph7.2 kmh 30.32 in1026.8 mb 0.00 in0.0 mm 0.00 in/hr0.0 mm/hr 0.00 in0.0 mm
05:30 PM 67.3°F19.6°C 60.6°F15.9°C 79% Calm Calm 2.2 mph3.5 kmh 30.33 in1027.1 mb 0.00 in0.0 mm 0.00 in/hr0.0 mm/hr 0.00 in0.0 mm
05:45 PM 67.1°F19.5°C 60.0°F15.6°C 78% Calm Calm 1.6 mph2.6 kmh 30.33 in1027.1 mb 0.00 in0.0 mm 0.00 in/hr0.0 mm/hr 0.00 in0.0 mm
06:00 PM 66.6°F19.2°C 59.1°F15.1°C 77% Calm Calm -- 30.33 in1027.1 mb 0.00 in0.0 mm 0.00 in/hr0.0 mm/hr 0.00 in0.0 mm
06:15 PM 66.0°F18.9°C 59.3°F15.2°C 79% Calm Calm -- 30.34 in1027.4 mb 0.00 in0.0 mm 0.00 in/hr0.0 mm/hr 0.00 in0.0 mm
06:30 PM 66.0°F18.9°C 59.0°F15.0°C 78% Calm Calm -- 30.34 in1027.4 mb 0.00 in0.0 mm 0.00 in/hr0.0 mm/hr 0.00 in0.0 mm
06:45 PM 64.0°F17.8°C 59.5°F15.3°C 85% Calm Calm -- 30.34 in1027.4 mb 0.00 in0.0 mm 0.00 in/hr0.0 mm/hr 0.00 in0.0 mm
07:00 PM 63.0°F17.2°C 60.3°F15.7°C 91% Calm Calm -- 30.35 in1027.8 mb 0.00 in0.0 mm 0.00 in/hr0.0 mm/hr 0.00 in0.0 mm
07:15 PM 62.1°F16.7°C 60.9°F16.1°C 96% Calm Calm -- 30.36 in1028.1 mb 0.00 in0.0 mm 0.00 in/hr0.0 mm/hr 0.00 in0.0 mm
07:30 PM 61.0°F16.1°C 60.7°F15.9°C 99% Calm Calm -- 30.36 in1028.1 mb 0.00 in0.0 mm 0.00 in/hr0.0 mm/hr 0.00 in0.0 mm
07:45 PM 60.4°F15.8°C 60.2°F15.7°C 99% Calm Calm -- 30.37 in1028.4 mb 0.00 in0.0 mm 0.00 in/hr0.0 mm/hr 0.00 in0.0 mm
08:00 PM 59.9°F15.5°C 59.6°F15.3°C 99% Calm Calm -- 30.37 in1028.4 mb 0.00 in0.0 mm 0.00 in/hr0.0 mm/hr 0.00 in0.0 mm
08:15 PM 59.5°F15.3°C 59.3°F15.2°C 99% Calm Calm -- 30.37 in1028.4 mb 0.00 in0.0 mm 0.00 in/hr0.0 mm/hr 0.00 in0.0 mm
08:30 PM 59.4°F15.2°C 59.1°F15.1°C 99% Calm Calm -- 30.37 in1028.4 mb 0.00 in0.0 mm 0.00 in/hr0.0 mm/hr 0.00 in0.0 mm
08:45 PM 59.0°F15.0°C 58.7°F14.8°C 99% Calm Calm 0.7 mph1.1 kmh 30.37 in1028.4 mb 0.00 in0.0 mm 0.00 in/hr0.0 mm/hr 0.00 in0.0 mm
09:00 PM 58.5°F14.7°C 58.2°F14.6°C 99% Calm Calm -- 30.37 in1028.4 mb 0.00 in0.0 mm 0.00 in/hr0.0 mm/hr 0.00 in0.0 mm
09:15 PM 58.3°F14.6°C 58.0°F14.4°C 99% Calm Calm 0.7 mph1.1 kmh 30.38 in1028.8 mb 0.00 in0.0 mm 0.00 in/hr0.0 mm/hr 0.00 in0.0 mm
09:30 PM 58.5°F14.7°C 58.2°F14.6°C 99% Calm Calm 1.6 mph2.6 kmh 30.38 in1028.8 mb 0.00 in0.0 mm 0.00 in/hr0.0 mm/hr 0.00 in0.0 mm
09:45 PM 58.5°F14.7°C 58.2°F14.6°C 99% Calm Calm -- 30.38 in1028.8 mb 0.00 in0.0 mm 0.00 in/hr0.0 mm/hr 0.00 in0.0 mm
10:00 PM 58.3°F14.6°C 58.0°F14.4°C 99% Calm Calm -- 30.38 in1028.8 mb 0.00 in0.0 mm 0.00 in/hr0.0 mm/hr 0.00 in0.0 mm
10:15 PM 57.9°F14.4°C 57.7°F14.3°C 99% Calm Calm -- 30.38 in1028.8 mb 0.00 in0.0 mm 0.00 in/hr0.0 mm/hr 0.00 in0.0 mm
10:30 PM 57.9°F14.4°C 57.7°F14.3°C 99% Calm Calm -- 30.37 in1028.4 mb 0.00 in0.0 mm 0.00 in/hr0.0 mm/hr 0.00 in0.0 mm
10:45 PM 58.5°F14.7°C 58.2°F14.6°C 99% Calm Calm -- 30.36 in1028.1 mb 0.00 in0.0 mm 0.00 in/hr0.0 mm/hr 0.00 in0.0 mm
11:00 PM 58.3°F14.6°C 58.0°F14.4°C 99% Calm Calm -- 30.37 in1028.4 mb 0.00 in0.0 mm 0.00 in/hr0.0 mm/hr 0.00 in0.0 mm
11:15 PM 57.4°F14.1°C 57.1°F13.9°C 99% Calm Calm -- 30.37 in1028.4 mb 0.00 in0.0 mm 0.00 in/hr0.0 mm/hr 0.00 in0.0 mm
11:30 PM 57.4°F14.1°C 57.1°F13.9°C 99% Calm Calm -- 30.37 in1028.4 mb 0.00 in0.0 mm 0.00 in/hr0.0 mm/hr 0.00 in0.0 mm
11:45 PM 57.6°F14.2°C 57.3°F14.1°C 99% Calm Calm -- 30.37 in1028.4 mb 0.00 in0.0 mm 0.00 in/hr0.0 mm/hr 0.00 in0.0 mm